sensor_id;sensor_type;location;lat;lon;timestamp;temperature;humidity
8633;DHT22;4354;49.832;10.746;2023-05-07T00:01:33;11.70;18.00
8633;DHT22;4354;49.832;10.746;2023-05-07T00:04:00;11.70;14.60
8633;DHT22;4354;49.832;10.746;2023-05-07T00:06:27;11.70;16.90
8633;DHT22;4354;49.832;10.746;2023-05-07T00:08:56;11.60;16.40
8633;DHT22;4354;49.832;10.746;2023-05-07T00:11:23;11.60;30.30
8633;DHT22;4354;49.832;10.746;2023-05-07T00:13:50;11.60;35.80
8633;DHT22;4354;49.832;10.746;2023-05-07T00:16:17;11.60;46.60
8633;DHT22;4354;49.832;10.746;2023-05-07T00:18:43;11.60;41.20
8633;DHT22;4354;49.832;10.746;2023-05-07T00:21:11;11.60;45.60
8633;DHT22;4354;49.832;10.746;2023-05-07T00:23:37;11.60;54.00
8633;DHT22;4354;49.832;10.746;2023-05-07T00:26:04;11.60;41.90
8633;DHT22;4354;49.832;10.746;2023-05-07T00:28:31;11.60;30.50
8633;DHT22;4354;49.832;10.746;2023-05-07T00:30:57;11.60;40.30
8633;DHT22;4354;49.832;10.746;2023-05-07T00:33:24;11.70;29.60
8633;DHT22;4354;49.832;10.746;2023-05-07T00:35:53;11.70;25.00
8633;DHT22;4354;49.832;10.746;2023-05-07T00:38:20;11.70;19.40
8633;DHT22;4354;49.832;10.746;2023-05-07T00:40:47;11.60;14.70
8633;DHT22;4354;49.832;10.746;2023-05-07T00:43:14;11.70;11.90
8633;DHT22;4354;49.832;10.746;2023-05-07T00:45:41;11.70;8.70
8633;DHT22;4354;49.832;10.746;2023-05-07T00:48:08;11.60;3.70
8633;DHT22;4354;49.832;10.746;2023-05-07T00:50:35;11.60;9.50
8633;DHT22;4354;49.832;10.746;2023-05-07T00:53:02;11.50;8.40
8633;DHT22;4354;49.832;10.746;2023-05-07T00:55:29;11.50;13.40
8633;DHT22;4354;49.832;10.746;2023-05-07T00:57:56;11.40;20.20
8633;DHT22;4354;49.832;10.746;2023-05-07T01:00:23;11.40;45.10
8633;DHT22;4354;49.832;10.746;2023-05-07T01:02:51;11.40;43.20
8633;DHT22;4354;49.832;10.746;2023-05-07T01:05:20;11.30;39.10
8633;DHT22;4354;49.832;10.746;2023-05-07T01:07:50;11.30;58.10
8633;DHT22;4354;49.832;10.746;2023-05-07T01:10:19;11.40;47.90
8633;DHT22;4354;49.832;10.746;2023-05-07T01:12:46;11.40;48.00
8633;DHT22;4354;49.832;10.746;2023-05-07T01:15:14;11.50;27.00
8633;DHT22;4354;49.832;10.746;2023-05-07T01:17:42;11.50;21.50
8633;DHT22;4354;49.832;10.746;2023-05-07T01:20:10;11.50;19.40
8633;DHT22;4354;49.832;10.746;2023-05-07T01:22:38;11.50;13.60
8633;DHT22;4354;49.832;10.746;2023-05-07T01:25:06;11.50;10.90
8633;DHT22;4354;49.832;10.746;2023-05-07T01:27:34;11.50;16.00
8633;DHT22;4354;49.832;10.746;2023-05-07T01:30:03;11.50;13.90
8633;DHT22;4354;49.832;10.746;2023-05-07T01:32:44;11.50;5.70
8633;DHT22;4354;49.832;10.746;2023-05-07T01:35:22;11.50;1.00
8633;DHT22;4354;49.832;10.746;2023-05-07T01:37:49;11.60;1.00
8633;DHT22;4354;49.832;10.746;2023-05-07T01:40:18;11.60;1.00
8633;DHT22;4354;49.832;10.746;2023-05-07T01:42:46;11.50;1.00
8633;DHT22;4354;49.832;10.746;2023-05-07T01:45:13;11.50;1.00
8633;DHT22;4354;49.832;10.746;2023-05-07T01:47:40;11.40;1.00
8633;DHT22;4354;49.832;10.746;2023-05-07T01:50:07;11.40;13.50
8633;DHT22;4354;49.832;10.746;2023-05-07T01:52:38;11.30;15.60
8633;DHT22;4354;49.832;10.746;2023-05-07T01:55:05;11.20;12.00
8633;DHT22;4354;49.832;10.746;2023-05-07T01:57:32;11.10;22.70
8633;DHT22;4354;49.832;10.746;2023-05-07T01:59:59;11.00;25.50
8633;DHT22;4354;49.832;10.746;2023-05-07T02:02:26;11.00;54.30
8633;DHT22;4354;49.832;10.746;2023-05-07T02:04:53;11.00;58.70
8633;DHT22;4354;49.832;10.746;2023-05-07T02:07:19;10.90;45.20
8633;DHT22;4354;49.832;10.746;2023-05-07T02:09:46;10.80;55.80
8633;DHT22;4354;49.832;10.746;2023-05-07T02:12:13;10.80;55.60
8633;DHT22;4354;49.832;10.746;2023-05-07T02:14:39;10.80;66.50
8633;DHT22;4354;49.832;10.746;2023-05-07T02:17:07;10.60;63.60
8633;DHT22;4354;49.832;10.746;2023-05-07T02:19:33;10.60;81.40
8633;DHT22;4354;49.832;10.746;2023-05-07T02:22:00;10.50;73.00
8633;DHT22;4354;49.832;10.746;2023-05-07T02:24:29;10.40;81.40
8633;DHT22;4354;49.832;10.746;2023-05-07T02:26:56;10.30;90.70
8633;DHT22;4354;49.832;10.746;2023-05-07T02:31:50;10.30;95.60
8633;DHT22;4354;49.832;10.746;2023-05-07T02:34:19;10.30;99.90
8633;DHT22;4354;49.832;10.746;2023-05-07T02:36:46;10.30;99.90
8633;DHT22;4354;49.832;10.746;2023-05-07T02:39:13;10.20;96.60
8633;DHT22;4354;49.832;10.746;2023-05-07T02:41:40;10.20;98.10
8633;DHT22;4354;49.832;10.746;2023-05-07T02:44:07;10.20;99.90
8633;DHT22;4354;49.832;10.746;2023-05-07T02:51:30;10.10;99.80
8633;DHT22;4354;49.832;10.746;2023-05-07T02:53:57;10.00;98.70
8633;DHT22;4354;49.832;10.746;2023-05-07T02:56:25;10.00;99.20
8633;DHT22;4354;49.832;10.746;2023-05-07T02:58:52;10.00;99.90
8633;DHT22;4354;49.832;10.746;2023-05-07T03:03:47;10.00;99.30
8633;DHT22;4354;49.832;10.746;2023-05-07T03:06:14;10.00;92.00
8633;DHT22;4354;49.832;10.746;2023-05-07T03:18:30;10.00;96.30
8633;DHT22;4354;49.832;10.746;2023-05-07T03:20:57;9.80;99.90
8633;DHT22;4354;49.832;10.746;2023-05-07T03:35:40;9.70;99.90
8633;DHT22;4354;49.832;10.746;2023-05-07T03:47:56;9.40;99.60
8633;DHT22;4354;49.832;10.746;2023-05-07T03:50:22;9.30;99.90
8633;DHT22;4354;49.832;10.746;2023-05-07T03:52:49;9.30;99.90
8633;DHT22;4354;49.832;10.746;2023-05-07T03:55:16;9.30;99.90
8633;DHT22;4354;49.832;10.746;2023-05-07T04:00:11;9.30;99.90
8633;DHT22;4354;49.832;10.746;2023-05-07T04:07:33;9.30;99.90
8633;DHT22;4354;49.832;10.746;2023-05-07T04:09:59;9.20;99.90
8633;DHT22;4354;49.832;10.746;2023-05-07T04:12:26;9.20;99.90
8633;DHT22;4354;49.832;10.746;2023-05-07T04:14:53;9.20;99.90
8633;DHT22;4354;49.832;10.746;2023-05-07T04:17:20;9.30;99.90
8633;DHT22;4354;49.832;10.746;2023-05-07T04:19:46;9.40;99.90
8633;DHT22;4354;49.832;10.746;2023-05-07T04:22:13;9.50;99.90
8633;DHT22;4354;49.832;10.746;2023-05-07T04:24:40;9.60;99.90
8633;DHT22;4354;49.832;10.746;2023-05-07T04:27:06;9.60;99.20
8633;DHT22;4354;49.832;10.746;2023-05-07T04:29:33;9.70;95.80
8633;DHT22;4354;49.832;10.746;2023-05-07T04:32:00;9.80;84.30
8633;DHT22;4354;49.832;10.746;2023-05-07T04:34:27;9.90;77.00
8633;DHT22;4354;49.832;10.746;2023-05-07T04:36:53;9.90;64.50
8633;DHT22;4354;49.832;10.746;2023-05-07T04:39:20;10.10;58.80
8633;DHT22;4354;49.832;10.746;2023-05-07T04:41:47;10.20;65.90
8633;DHT22;4354;49.832;10.746;2023-05-07T04:44:14;10.30;40.00
8633;DHT22;4354;49.832;10.746;2023-05-07T04:46:41;10.40;41.40
8633;DHT22;4354;49.832;10.746;2023-05-07T04:49:07;10.50;37.90
8633;DHT22;4354;49.832;10.746;2023-05-07T04:51:34;10.70;25.90
8633;DHT22;4354;49.832;10.746;2023-05-07T04:54:01;10.80;15.60
8633;DHT22;4354;49.832;10.746;2023-05-07T04:56:28;10.90;5.00
8633;DHT22;4354;49.832;10.746;2023-05-07T04:58:56;11.00;1.00
8633;DHT22;4354;49.832;10.746;2023-05-07T05:01:23;11.10;1.00
8633;DHT22;4354;49.832;10.746;2023-05-07T05:03:50;11.20;1.00
8633;DHT22;4354;49.832;10.746;2023-05-07T05:06:16;11.30;1.00
8633;DHT22;4354;49.832;10.746;2023-05-07T05:08:43;11.40;1.00
8633;DHT22;4354;49.832;10.746;2023-05-07T05:11:10;11.40;1.00
8633;DHT22;4354;49.832;10.746;2023-05-07T05:13:37;11.60;1.00
8633;DHT22;4354;49.832;10.746;2023-05-07T05:16:04;11.50;1.00
8633;DHT22;4354;49.832;10.746;2023-05-07T05:18:31;11.50;1.00
8633;DHT22;4354;49.832;10.746;2023-05-07T05:20:57;11.50;1.00
8633;DHT22;4354;49.832;10.746;2023-05-07T05:23:24;11.60;1.00
8633;DHT22;4354;49.832;10.746;2023-05-07T05:25:56;11.60;1.00
8633;DHT22;4354;49.832;10.746;2023-05-07T05:28:26;11.70;1.00
8633;DHT22;4354;49.832;10.746;2023-05-07T05:30:54;11.70;1.00
8633;DHT22;4354;49.832;10.746;2023-05-07T05:33:21;11.90;1.00
8633;DHT22;4354;49.832;10.746;2023-05-07T05:35:47;12.10;1.00
8633;DHT22;4354;49.832;10.746;2023-05-07T05:38:14;12.30;1.00
8633;DHT22;4354;49.832;10.746;2023-05-07T05:40:41;12.60;1.00
8633;DHT22;4354;49.832;10.746;2023-05-07T05:43:08;12.80;99.90
8633;DHT22;4354;49.832;10.746;2023-05-07T05:45:34;13.10;99.90
8633;DHT22;4354;49.832;10.746;2023-05-07T05:48:01;13.30;99.90
8633;DHT22;4354;49.832;10.746;2023-05-07T05:50:28;13.50;99.90
8633;DHT22;4354;49.832;10.746;2023-05-07T05:52:55;13.70;99.90
8633;DHT22;4354;49.832;10.746;2023-05-07T05:55:22;14.00;99.90
8633;DHT22;4354;49.832;10.746;2023-05-07T05:57:49;14.10;99.90
8633;DHT22;4354;49.832;10.746;2023-05-07T06:00:16;14.20;99.90
8633;DHT22;4354;49.832;10.746;2023-05-07T06:02:43;14.20;99.90
8633;DHT22;4354;49.832;10.746;2023-05-07T06:05:10;14.20;99.90
8633;DHT22;4354;49.832;10.746;2023-05-07T06:07:37;14.30;99.90
8633;DHT22;4354;49.832;10.746;2023-05-07T06:10:04;14.40;99.90
8633;DHT22;4354;49.832;10.746;2023-05-07T06:12:31;14.40;99.90
8633;DHT22;4354;49.832;10.746;2023-05-07T06:14:58;14.50;99.90
8633;DHT22;4354;49.832;10.746;2023-05-07T06:17:24;14.60;99.90
8633;DHT22;4354;49.832;10.746;2023-05-07T06:19:52;14.80;99.90
8633;DHT22;4354;49.832;10.746;2023-05-07T06:22:19;14.90;99.90
8633;DHT22;4354;49.832;10.746;2023-05-07T06:24:45;14.90;99.90
8633;DHT22;4354;49.832;10.746;2023-05-07T06:27:12;15.20;99.90
8633;DHT22;4354;49.832;10.746;2023-05-07T06:29:39;15.60;99.90
8633;DHT22;4354;49.832;10.746;2023-05-07T06:32:10;15.80;99.90
8633;DHT22;4354;49.832;10.746;2023-05-07T06:34:38;16.20;99.90
8633;DHT22;4354;49.832;10.746;2023-05-07T06:37:05;16.60;99.90
8633;DHT22;4354;49.832;10.746;2023-05-07T06:39:32;16.80;99.90
8633;DHT22;4354;49.832;10.746;2023-05-07T06:42:00;17.00;99.90
8633;DHT22;4354;49.832;10.746;2023-05-07T06:44:27;17.10;99.90
8633;DHT22;4354;49.832;10.746;2023-05-07T06:46:54;17.20;99.90
8633;DHT22;4354;49.832;10.746;2023-05-07T06:49:20;17.40;99.90
8633;DHT22;4354;49.832;10.746;2023-05-07T06:51:47;17.60;99.90
8633;DHT22;4354;49.832;10.746;2023-05-07T06:54:14;17.60;99.90
8633;DHT22;4354;49.832;10.746;2023-05-07T06:56:41;17.50;99.90
8633;DHT22;4354;49.832;10.746;2023-05-07T06:59:08;17.50;99.90
8633;DHT22;4354;49.832;10.746;2023-05-07T07:01:35;17.40;99.90
8633;DHT22;4354;49.832;10.746;2023-05-07T07:04:01;17.40;99.90
8633;DHT22;4354;49.832;10.746;2023-05-07T07:06:28;17.40;99.90
8633;DHT22;4354;49.832;10.746;2023-05-07T07:08:56;17.40;99.90
8633;DHT22;4354;49.832;10.746;2023-05-07T07:11:22;17.40;99.90
8633;DHT22;4354;49.832;10.746;2023-05-07T07:13:49;17.60;99.90
8633;DHT22;4354;49.832;10.746;2023-05-07T07:16:17;17.80;99.90
8633;DHT22;4354;49.832;10.746;2023-05-07T07:18:44;17.90;99.90
8633;DHT22;4354;49.832;10.746;2023-05-07T07:21:10;17.80;99.90
8633;DHT22;4354;49.832;10.746;2023-05-07T07:23:37;17.90;99.90
8633;DHT22;4354;49.832;10.746;2023-05-07T07:26:04;18.00;99.90
8633;DHT22;4354;49.832;10.746;2023-05-07T07:28:32;18.00;99.90
8633;DHT22;4354;49.832;10.746;2023-05-07T07:30:59;18.20;99.90
8633;DHT22;4354;49.832;10.746;2023-05-07T07:33:26;18.30;99.90
8633;DHT22;4354;49.832;10.746;2023-05-07T07:35:53;18.40;99.90
8633;DHT22;4354;49.832;10.746;2023-05-07T07:38:20;18.50;99.90
8633;DHT22;4354;49.832;10.746;2023-05-07T07:40:47;18.80;99.90
8633;DHT22;4354;49.832;10.746;2023-05-07T07:43:14;19.10;99.90
8633;DHT22;4354;49.832;10.746;2023-05-07T07:45:41;19.30;99.90
8633;DHT22;4354;49.832;10.746;2023-05-07T07:48:08;19.80;99.90
8633;DHT22;4354;49.832;10.746;2023-05-07T07:50:35;20.00;99.90
8633;DHT22;4354;49.832;10.746;2023-05-07T07:53:11;20.10;99.90
8633;DHT22;4354;49.832;10.746;2023-05-07T07:55:40;20.50;99.90
8633;DHT22;4354;49.832;10.746;2023-05-07T07:58:07;20.70;99.90
8633;DHT22;4354;49.832;10.746;2023-05-07T08:00:34;21.40;99.90
8633;DHT22;4354;49.832;10.746;2023-05-07T08:05:30;21.80;99.90
8633;DHT22;4354;49.832;10.746;2023-05-07T08:07:57;24.00;99.90
8633;DHT22;4354;49.832;10.746;2023-05-07T08:10:25;24.50;99.90
8633;DHT22;4354;49.832;10.746;2023-05-07T08:12:52;25.30;99.90
8633;DHT22;4354;49.832;10.746;2023-05-07T08:15:18;25.70;99.90
8633;DHT22;4354;49.832;10.746;2023-05-07T08:17:45;26.00;1.00
8633;DHT22;4354;49.832;10.746;2023-05-07T08:20:13;26.10;83.90
8633;DHT22;4354;49.832;10.746;2023-05-07T08:22:40;25.80;91.30
8633;DHT22;4354;49.832;10.746;2023-05-07T08:25:07;25.80;91.40
8633;DHT22;4354;49.832;10.746;2023-05-07T08:27:34;25.80;91.30
8633;DHT22;4354;49.832;10.746;2023-05-07T08:30:02;26.30;91.00
8633;DHT22;4354;49.832;10.746;2023-05-07T08:32:28;26.50;90.90
8633;DHT22;4354;49.832;10.746;2023-05-07T08:34:55;26.70;87.50
8633;DHT22;4354;49.832;10.746;2023-05-07T08:37:22;26.30;88.10
8633;DHT22;4354;49.832;10.746;2023-05-07T08:39:48;26.30;87.50
8633;DHT22;4354;49.832;10.746;2023-05-07T08:42:16;26.70;88.20
8633;DHT22;4354;49.832;10.746;2023-05-07T08:44:45;26.50;84.30
8633;DHT22;4354;49.832;10.746;2023-05-07T08:47:13;26.10;84.40
8633;DHT22;4354;49.832;10.746;2023-05-07T08:49:40;25.40;86.80
8633;DHT22;4354;49.832;10.746;2023-05-07T08:52:07;25.20;87.60
8633;DHT22;4354;49.832;10.746;2023-05-07T08:54:37;24.80;86.50
8633;DHT22;4354;49.832;10.746;2023-05-07T08:57:03;24.60;87.30
8633;DHT22;4354;49.832;10.746;2023-05-07T08:59:30;24.40;86.60
8633;DHT22;4354;49.832;10.746;2023-05-07T09:01:57;24.20;86.60
8633;DHT22;4354;49.832;10.746;2023-05-07T09:04:24;24.60;88.10
8633;DHT22;4354;49.832;10.746;2023-05-07T09:06:51;25.20;88.40
8633;DHT22;4354;49.832;10.746;2023-05-07T09:09:18;26.90;83.20
8633;DHT22;4354;49.832;10.746;2023-05-07T09:11:45;27.90;81.50
8633;DHT22;4354;49.832;10.746;2023-05-07T09:14:12;28.40;78.60
8633;DHT22;4354;49.832;10.746;2023-05-07T09:16:39;29.60;75.00
8633;DHT22;4354;49.832;10.746;2023-05-07T09:19:06;29.70;71.00
8633;DHT22;4354;49.832;10.746;2023-05-07T09:21:32;29.30;73.30
8633;DHT22;4354;49.832;10.746;2023-05-07T09:23:59;29.10;71.10
8633;DHT22;4354;49.832;10.746;2023-05-07T09:26:26;28.80;71.70
8633;DHT22;4354;49.832;10.746;2023-05-07T09:28:54;29.50;15.40
8633;DHT22;4354;49.832;10.746;2023-05-07T09:31:21;29.50;13.10
8633;DHT22;4354;49.832;10.746;2023-05-07T09:33:50;29.60;10.70
8633;DHT22;4354;49.832;10.746;2023-05-07T09:36:17;29.70;7.50
8633;DHT22;4354;49.832;10.746;2023-05-07T09:38:45;29.30;7.00
8633;DHT22;4354;49.832;10.746;2023-05-07T09:41:12;28.80;7.00
8633;DHT22;4354;49.832;10.746;2023-05-07T09:43:40;28.40;6.90
8633;DHT22;4354;49.832;10.746;2023-05-07T09:46:12;27.50;7.90
8633;DHT22;4354;49.832;10.746;2023-05-07T09:48:41;27.20;11.70
8633;DHT22;4354;49.832;10.746;2023-05-07T09:51:18;26.90;12.70
8633;DHT22;4354;49.832;10.746;2023-05-07T09:53:45;26.60;13.10
8633;DHT22;4354;49.832;10.746;2023-05-07T09:56:14;26.20;14.60
8633;DHT22;4354;49.832;10.746;2023-05-07T09:58:43;25.90;14.80
8633;DHT22;4354;49.832;10.746;2023-05-07T10:01:12;25.60;14.60
8633;DHT22;4354;49.832;10.746;2023-05-07T10:03:43;25.30;16.00
8633;DHT22;4354;49.832;10.746;2023-05-07T10:06:12;24.80;18.50
8633;DHT22;4354;49.832;10.746;2023-05-07T10:08:40;24.50;18.70
8633;DHT22;4354;49.832;10.746;2023-05-07T10:11:07;24.30;19.80
8633;DHT22;4354;49.832;10.746;2023-05-07T10:13:33;24.10;19.70
8633;DHT22;4354;49.832;10.746;2023-05-07T10:16:05;24.10;20.20
8633;DHT22;4354;49.832;10.746;2023-05-07T10:18:32;23.70;21.40
8633;DHT22;4354;49.832;10.746;2023-05-07T10:21:16;23.60;22.30
8633;DHT22;4354;49.832;10.746;2023-05-07T10:23:51;23.50;23.90
8633;DHT22;4354;49.832;10.746;2023-05-07T10:26:22;23.60;24.90
8633;DHT22;4354;49.832;10.746;2023-05-07T10:29:03;24.00;24.50
8633;DHT22;4354;49.832;10.746;2023-05-07T10:34:26;25.70;21.20
8633;DHT22;4354;49.832;10.746;2023-05-07T10:36:55;28.30;12.20
8633;DHT22;4354;49.832;10.746;2023-05-07T10:39:23;29.80;1.00
8633;DHT22;4354;49.832;10.746;2023-05-07T10:41:50;30.60;1.00
8633;DHT22;4354;49.832;10.746;2023-05-07T10:44:27;30.70;1.00
8633;DHT22;4354;49.832;10.746;2023-05-07T10:47:10;30.00;1.00
8633;DHT22;4354;49.832;10.746;2023-05-07T10:52:18;31.50;1.00
8633;DHT22;4354;49.832;10.746;2023-05-07T10:54:45;32.60;1.00
8633;DHT22;4354;49.832;10.746;2023-05-07T10:57:32;31.80;1.00
8633;DHT22;4354;49.832;10.746;2023-05-07T10:59:59;31.30;1.00
8633;DHT22;4354;49.832;10.746;2023-05-07T11:05:32;30.90;1.00
8633;DHT22;4354;49.832;10.746;2023-05-07T11:08:04;30.90;1.00
8633;DHT22;4354;49.832;10.746;2023-05-07T11:10:54;31.10;1.00
8633;DHT22;4354;49.832;10.746;2023-05-07T11:13:44;31.40;1.00
8633;DHT22;4354;49.832;10.746;2023-05-07T11:18:49;30.10;1.00
8633;DHT22;4354;49.832;10.746;2023-05-07T11:24:02;29.20;1.00
8633;DHT22;4354;49.832;10.746;2023-05-07T11:26:40;28.40;1.00
8633;DHT22;4354;49.832;10.746;2023-05-07T11:29:12;28.20;1.00
8633;DHT22;4354;49.832;10.746;2023-05-07T11:31:40;28.10;1.00
8633;DHT22;4354;49.832;10.746;2023-05-07T11:34:08;28.30;1.00
8633;DHT22;4354;49.832;10.746;2023-05-07T11:36:37;28.80;1.00
8633;DHT22;4354;49.832;10.746;2023-05-07T11:39:40;29.40;1.00
8633;DHT22;4354;49.832;10.746;2023-05-07T11:42:07;29.70;1.00
8633;DHT22;4354;49.832;10.746;2023-05-07T11:44:51;29.70;1.00
8633;DHT22;4354;49.832;10.746;2023-05-07T11:47:18;30.20;1.00
8633;DHT22;4354;49.832;10.746;2023-05-07T11:49:52;30.40;1.00
8633;DHT22;4354;49.832;10.746;2023-05-07T11:52:21;30.20;1.00
8633;DHT22;4354;49.832;10.746;2023-05-07T11:54:53;30.50;1.00
8633;DHT22;4354;49.832;10.746;2023-05-07T11:57:22;31.00;1.00
8633;DHT22;4354;49.832;10.746;2023-05-07T11:59:56;31.00;1.00
8633;DHT22;4354;49.832;10.746;2023-05-07T12:02:24;31.30;1.00
8633;DHT22;4354;49.832;10.746;2023-05-07T12:04:52;31.60;1.00
8633;DHT22;4354;49.832;10.746;2023-05-07T12:07:19;31.50;1.00
8633;DHT22;4354;49.832;10.746;2023-05-07T12:09:46;31.70;1.00
8633;DHT22;4354;49.832;10.746;2023-05-07T12:12:14;32.10;1.00
8633;DHT22;4354;49.832;10.746;2023-05-07T12:14:43;32.20;1.00
8633;DHT22;4354;49.832;10.746;2023-05-07T12:17:11;31.60;1.00
8633;DHT22;4354;49.832;10.746;2023-05-07T12:19:40;31.10;1.00
8633;DHT22;4354;49.832;10.746;2023-05-07T12:22:08;31.10;1.00
8633;DHT22;4354;49.832;10.746;2023-05-07T12:24:48;31.00;1.00
8633;DHT22;4354;49.832;10.746;2023-05-07T12:27:16;30.70;1.00
8633;DHT22;4354;49.832;10.746;2023-05-07T12:29:45;30.30;1.00
8633;DHT22;4354;49.832;10.746;2023-05-07T12:32:18;30.10;1.00
8633;DHT22;4354;49.832;10.746;2023-05-07T12:34:46;29.90;1.00
8633;DHT22;4354;49.832;10.746;2023-05-07T12:37:16;30.20;1.00
8633;DHT22;4354;49.832;10.746;2023-05-07T12:39:49;30.40;1.00
8633;DHT22;4354;49.832;10.746;2023-05-07T12:42:19;30.40;1.00
8633;DHT22;4354;49.832;10.746;2023-05-07T12:44:46;30.10;1.00
8633;DHT22;4354;49.832;10.746;2023-05-07T12:47:14;30.30;1.00
8633;DHT22;4354;49.832;10.746;2023-05-07T12:49:42;30.50;1.00
8633;DHT22;4354;49.832;10.746;2023-05-07T12:52:11;30.60;1.00
8633;DHT22;4354;49.832;10.746;2023-05-07T12:54:38;30.80;1.00
8633;DHT22;4354;49.832;10.746;2023-05-07T12:57:07;30.60;1.00
8633;DHT22;4354;49.832;10.746;2023-05-07T12:59:39;30.20;1.00
8633;DHT22;4354;49.832;10.746;2023-05-07T13:02:07;30.10;1.00
8633;DHT22;4354;49.832;10.746;2023-05-07T13:04:34;29.80;1.00
8633;DHT22;4354;49.832;10.746;2023-05-07T13:07:02;29.50;1.00
8633;DHT22;4354;49.832;10.746;2023-05-07T13:09:29;28.90;1.00
8633;DHT22;4354;49.832;10.746;2023-05-07T13:11:58;28.70;1.00
8633;DHT22;4354;49.832;10.746;2023-05-07T13:14:27;28.80;1.00
8633;DHT22;4354;49.832;10.746;2023-05-07T13:16:54;28.70;1.00
8633;DHT22;4354;49.832;10.746;2023-05-07T13:19:21;28.70;1.00
8633;DHT22;4354;49.832;10.746;2023-05-07T13:21:48;28.50;1.00
8633;DHT22;4354;49.832;10.746;2023-05-07T13:24:16;28.50;1.00
8633;DHT22;4354;49.832;10.746;2023-05-07T13:26:43;28.40;1.00
8633;DHT22;4354;49.832;10.746;2023-05-07T13:29:11;28.50;1.00
8633;DHT22;4354;49.832;10.746;2023-05-07T13:31:38;28.70;1.00
8633;DHT22;4354;49.832;10.746;2023-05-07T13:34:09;29.20;1.00
8633;DHT22;4354;49.832;10.746;2023-05-07T13:36:36;29.40;1.00
8633;DHT22;4354;49.832;10.746;2023-05-07T13:39:06;29.80;1.00
8633;DHT22;4354;49.832;10.746;2023-05-07T13:41:33;29.30;1.00
8633;DHT22;4354;49.832;10.746;2023-05-07T13:44:00;29.00;1.00
8633;DHT22;4354;49.832;10.746;2023-05-07T13:46:26;28.80;1.00
8633;DHT22;4354;49.832;10.746;2023-05-07T13:48:54;28.90;1.00
8633;DHT22;4354;49.832;10.746;2023-05-07T13:51:21;29.20;1.00
8633;DHT22;4354;49.832;10.746;2023-05-07T13:53:48;29.20;1.00
8633;DHT22;4354;49.832;10.746;2023-05-07T13:56:15;29.40;1.00
8633;DHT22;4354;49.832;10.746;2023-05-07T13:58:41;28.90;1.00
8633;DHT22;4354;49.832;10.746;2023-05-07T14:01:24;28.50;1.00
8633;DHT22;4354;49.832;10.746;2023-05-07T14:03:51;28.10;1.00
8633;DHT22;4354;49.832;10.746;2023-05-07T14:06:18;28.20;1.00
8633;DHT22;4354;49.832;10.746;2023-05-07T14:08:45;28.30;1.00
8633;DHT22;4354;49.832;10.746;2023-05-07T14:11:11;28.00;1.00
8633;DHT22;4354;49.832;10.746;2023-05-07T14:13:38;27.60;1.00
8633;DHT22;4354;49.832;10.746;2023-05-07T14:16:05;27.60;1.00
8633;DHT22;4354;49.832;10.746;2023-05-07T14:18:32;27.20;1.00
8633;DHT22;4354;49.832;10.746;2023-05-07T14:21:00;27.00;1.00
8633;DHT22;4354;49.832;10.746;2023-05-07T14:23:27;26.70;1.00
8633;DHT22;4354;49.832;10.746;2023-05-07T14:25:54;26.60;1.00
8633;DHT22;4354;49.832;10.746;2023-05-07T14:28:23;26.80;1.00
8633;DHT22;4354;49.832;10.746;2023-05-07T14:30:50;26.60;1.00
8633;DHT22;4354;49.832;10.746;2023-05-07T14:33:17;26.60;1.00
8633;DHT22;4354;49.832;10.746;2023-05-07T14:35:44;26.50;1.00
8633;DHT22;4354;49.832;10.746;2023-05-07T14:38:15;26.30;1.00
8633;DHT22;4354;49.832;10.746;2023-05-07T14:40:42;26.50;1.00
8633;DHT22;4354;49.832;10.746;2023-05-07T14:43:09;26.20;1.00
8633;DHT22;4354;49.832;10.746;2023-05-07T14:45:35;26.10;1.00
8633;DHT22;4354;49.832;10.746;2023-05-07T14:48:03;26.00;1.00
8633;DHT22;4354;49.832;10.746;2023-05-07T14:50:30;25.80;1.00
8633;DHT22;4354;49.832;10.746;2023-05-07T14:52:56;25.50;1.00
8633;DHT22;4354;49.832;10.746;2023-05-07T14:55:23;25.20;1.00
8633;DHT22;4354;49.832;10.746;2023-05-07T14:57:50;24.70;1.00
8633;DHT22;4354;49.832;10.746;2023-05-07T15:00:17;24.50;1.00
8633;DHT22;4354;49.832;10.746;2023-05-07T15:02:44;24.40;1.00
8633;DHT22;4354;49.832;10.746;2023-05-07T15:05:11;24.20;1.00
8633;DHT22;4354;49.832;10.746;2023-05-07T15:07:38;24.00;1.00
8633;DHT22;4354;49.832;10.746;2023-05-07T15:10:05;24.10;1.00
8633;DHT22;4354;49.832;10.746;2023-05-07T15:12:32;24.10;1.00
8633;DHT22;4354;49.832;10.746;2023-05-07T15:14:59;24.20;1.00
8633;DHT22;4354;49.832;10.746;2023-05-07T15:17:26;24.20;1.00
8633;DHT22;4354;49.832;10.746;2023-05-07T15:19:53;24.10;1.00
8633;DHT22;4354;49.832;10.746;2023-05-07T15:22:20;24.30;1.00
8633;DHT22;4354;49.832;10.746;2023-05-07T15:24:48;24.40;1.00
8633;DHT22;4354;49.832;10.746;2023-05-07T15:27:15;24.40;1.00
8633;DHT22;4354;49.832;10.746;2023-05-07T15:29:45;24.40;1.00
8633;DHT22;4354;49.832;10.746;2023-05-07T15:32:12;24.40;1.00
8633;DHT22;4354;49.832;10.746;2023-05-07T15:34:39;24.30;1.00
8633;DHT22;4354;49.832;10.746;2023-05-07T15:37:07;24.40;1.00
8633;DHT22;4354;49.832;10.746;2023-05-07T15:39:34;24.30;1.00
8633;DHT22;4354;49.832;10.746;2023-05-07T15:42:01;24.20;1.00
8633;DHT22;4354;49.832;10.746;2023-05-07T15:44:28;24.00;1.00
8633;DHT22;4354;49.832;10.746;2023-05-07T15:47:00;23.90;1.00
8633;DHT22;4354;49.832;10.746;2023-05-07T15:49:27;23.80;1.00
8633;DHT22;4354;49.832;10.746;2023-05-07T15:51:54;23.60;1.00
8633;DHT22;4354;49.832;10.746;2023-05-07T15:54:21;23.50;1.00
8633;DHT22;4354;49.832;10.746;2023-05-07T15:56:49;23.40;1.00
8633;DHT22;4354;49.832;10.746;2023-05-07T15:59:16;23.30;1.00
8633;DHT22;4354;49.832;10.746;2023-05-07T16:01:43;23.20;1.00
8633;DHT22;4354;49.832;10.746;2023-05-07T16:04:11;23.10;1.00
8633;DHT22;4354;49.832;10.746;2023-05-07T16:06:38;23.00;1.00
8633;DHT22;4354;49.832;10.746;2023-05-07T16:09:05;22.80;1.00
8633;DHT22;4354;49.832;10.746;2023-05-07T16:11:32;22.70;1.00
8633;DHT22;4354;49.832;10.746;2023-05-07T16:13:59;22.70;1.00
8633;DHT22;4354;49.832;10.746;2023-05-07T16:16:27;22.70;1.00
8633;DHT22;4354;49.832;10.746;2023-05-07T16:18:57;22.50;1.00
8633;DHT22;4354;49.832;10.746;2023-05-07T16:21:23;22.50;1.00
8633;DHT22;4354;49.832;10.746;2023-05-07T16:23:50;22.50;1.00
8633;DHT22;4354;49.832;10.746;2023-05-07T16:26:17;22.40;1.00
8633;DHT22;4354;49.832;10.746;2023-05-07T16:28:44;22.40;1.00
8633;DHT22;4354;49.832;10.746;2023-05-07T16:31:11;22.40;1.00
8633;DHT22;4354;49.832;10.746;2023-05-07T16:33:38;22.30;1.00
8633;DHT22;4354;49.832;10.746;2023-05-07T16:36:05;22.30;1.00
8633;DHT22;4354;49.832;10.746;2023-05-07T16:38:32;22.30;1.00
8633;DHT22;4354;49.832;10.746;2023-05-07T16:40:59;22.20;1.00
8633;DHT22;4354;49.832;10.746;2023-05-07T16:43:27;22.00;1.00
8633;DHT22;4354;49.832;10.746;2023-05-07T16:45:53;21.90;1.00
8633;DHT22;4354;49.832;10.746;2023-05-07T16:48:20;21.80;1.00
8633;DHT22;4354;49.832;10.746;2023-05-07T16:50:47;21.70;1.00
8633;DHT22;4354;49.832;10.746;2023-05-07T16:53:14;21.70;1.00
8633;DHT22;4354;49.832;10.746;2023-05-07T16:55:41;21.50;1.00
8633;DHT22;4354;49.832;10.746;2023-05-07T16:58:09;21.40;1.00
8633;DHT22;4354;49.832;10.746;2023-05-07T17:00:37;21.40;1.00
8633;DHT22;4354;49.832;10.746;2023-05-07T17:03:16;21.30;1.00
8633;DHT22;4354;49.832;10.746;2023-05-07T17:05:44;21.20;1.00